Time;durP1;ratioP1;P1;durP2;ratioP2;P2;SDS_P1;SDS_P2;PMS_P1;PMS_P2;Temp;Humidity;BMP_temperature;BMP_pressure;BME280_temperature;BME280_humidity;BME280_pressure;Samples;Min_cycle;Max_cycle;Signal;HPM_P1;HPM_P2
2021/04/21 00:00:26;;;;;;;31.97;20.23;;;;;;;;;;4983006;28;20629;-86
2021/04/21 00:03:31;;;;;;;31.77;20.60;;;;;;;;;;4982474;28;20881;-86
2021/04/21 00:06:37;;;;;;;38.37;23.63;;;;;;;;;;4982222;28;20221;-86
2021/04/21 00:09:43;;;;;;;30.50;20.97;;;;;;;;;;4994117;28;20178;-85
2021/04/21 00:12:49;;;;;;;31.90;21.43;;;;;;;;;;4982767;28;20198;-85
2021/04/21 00:15:53;;;;;;;32.37;21.23;;;;;;;;;;4993391;28;20562;-86
2021/04/21 00:18:58;;;;;;;33.47;21.60;;;;;;;;;;4986007;28;20633;-85
2021/04/21 00:22:04;;;;;;;31.63;21.00;;;;;;;;;;5009421;28;20546;-86
2021/04/21 00:25:11;;;;;;;32.13;20.73;;;;;;;;;;5009196;28;20629;-86
2021/04/21 00:28:17;;;;;;;38.57;21.93;;;;;;;;;;4986607;28;20593;-86
2021/04/21 00:31:23;;;;;;;35.73;22.50;;;;;;;;;;4997958;28;20550;-86
2021/04/21 00:34:28;;;;;;;33.17;21.87;;;;;;;;;;4997629;28;20538;-86
2021/04/21 00:37:33;;;;;;;34.87;21.90;;;;;;;;;;4986297;28;21088;-86
2021/04/21 00:40:47;;;;;;;31.10;20.97;;;;;;;;;;4997689;28;20542;-86
2021/04/21 00:44:11;;;;;;;35.47;20.87;;;;;;;;;;4986056;28;20638;-86
2021/04/21 00:47:21;;;;;;;34.10;22.27;;;;;;;;;;4997096;28;20605;-86
2021/04/21 00:50:38;;;;;;;34.53;23.30;;;;;;;;;;4997595;28;20186;-86
2021/04/21 00:53:59;;;;;;;33.63;21.77;;;;;;;;;;4986154;28;20547;-86
2021/04/21 00:57:25;;;;;;;33.27;21.03;;;;;;;;;;4997278;28;20546;-86
2021/04/21 01:00:35;;;;;;;33.00;21.77;;;;;;;;;;5008368;28;20870;-85
2021/04/21 01:03:47;;;;;;;37.07;22.30;;;;;;;;;;4986260;28;20545;-85
2021/04/21 01:06:54;;;;;;;35.53;22.70;;;;;;;;;;5008401;28;20546;-86
2021/04/21 01:10:02;;;;;;;33.57;21.70;;;;;;;;;;4996784;28;20533;-85
2021/04/21 01:13:10;;;;;;;32.00;21.37;;;;;;;;;;4996655;28;20549;-86
2021/04/21 01:16:19;;;;;;;31.00;19.70;;;;;;;;;;5007964;28;20633;-85
2021/04/21 01:19:35;;;;;;;32.67;21.53;;;;;;;;;;5008235;28;20534;-86
2021/04/21 01:22:42;;;;;;;38.10;22.77;;;;;;;;;;4996590;28;20538;-86
2021/04/21 01:25:54;;;;;;;32.03;21.73;;;;;;;;;;5007929;28;20609;-85
2021/04/21 01:29:00;;;;;;;37.37;23.90;;;;;;;;;;4984398;28;20621;-86
2021/04/21 01:32:13;;;;;;;36.83;22.20;;;;;;;;;;5007462;28;20597;-85
2021/04/21 01:35:20;;;;;;;36.50;22.60;;;;;;;;;;4985015;28;20836;-86
2021/04/21 01:38:27;;;;;;;39.90;23.90;;;;;;;;;;4996557;28;20597;-85
2021/04/21 01:41:38;;;;;;;41.63;24.50;;;;;;;;;;5007764;28;20542;-85
2021/04/21 01:44:45;;;;;;;39.23;24.17;;;;;;;;;;4984977;28;20557;-85
2021/04/21 01:47:51;;;;;;;42.27;26.00;;;;;;;;;;5007420;28;20589;-85
2021/04/21 01:51:02;;;;;;;48.23;26.80;;;;;;;;;;4996434;28;20596;-86
2021/04/21 01:54:06;;;;;;;51.20;29.07;;;;;;;;;;4985050;28;20886;-86
2021/04/21 01:57:31;;;;;;;47.60;28.20;;;;;;;;;;4984892;28;20538;-86
2021/04/21 02:00:38;;;;;;;47.07;28.40;;;;;;;;;;4984832;28;20546;-85
2021/04/21 02:03:48;;;;;;;50.13;29.57;;;;;;;;;;4995995;28;20545;-85
2021/04/21 02:07:01;;;;;;;47.97;28.23;;;;;;;;;;5007341;28;21163;-86
2021/04/21 02:10:14;;;;;;;48.47;28.60;;;;;;;;;;4984578;28;20605;-85
2021/04/21 02:13:37;;;;;;;46.07;26.33;;;;;;;;;;5006894;28;20545;-86
2021/04/21 02:16:55;;;;;;;42.20;26.13;;;;;;;;;;4984253;28;20609;-86
2021/04/21 02:20:20;;;;;;;38.83;24.93;;;;;;;;;;4995350;28;20577;-85
2021/04/21 02:23:48;;;;;;;41.83;25.00;;;;;;;;;;4995597;28;20546;-85
2021/04/21 02:27:05;;;;;;;37.20;23.57;;;;;;;;;;4984384;28;20546;-86
2021/04/21 02:30:16;;;;;;;34.27;22.03;;;;;;;;;;4983881;28;20597;-86
2021/04/21 02:33:39;;;;;;;36.37;23.50;;;;;;;;;;5006418;28;20546;-86
2021/04/21 02:36:59;;;;;;;34.53;22.40;;;;;;;;;;4983922;28;20621;-86
2021/04/21 02:40:12;;;;;;;35.73;22.83;;;;;;;;;;4995260;28;20538;-85
2021/04/21 02:43:38;;;;;;;35.87;21.93;;;;;;;;;;4983840;28;20538;-86
2021/04/21 02:47:05;;;;;;;35.83;22.57;;;;;;;;;;4994863;28;20633;-86
2021/04/21 02:50:20;;;;;;;38.03;22.90;;;;;;;;;;4995091;28;21081;-85
2021/04/21 02:53:47;;;;;;;37.23;24.10;;;;;;;;;;4984147;28;20550;-86
2021/04/21 02:57:10;;;;;;;40.10;23.17;;;;;;;;;;5006302;28;20546;-86
2021/04/21 03:00:23;;;;;;;41.57;25.33;;;;;;;;;;4995067;28;20538;-86
2021/04/21 03:03:46;;;;;;;42.43;26.17;;;;;;;;;;4995014;28;20546;-86
2021/04/21 03:06:50;;;;;;;51.67;30.30;;;;;;;;;;4994948;28;20534;-86
2021/04/21 03:10:03;;;;;;;47.23;27.37;;;;;;;;;;4983766;28;20585;-86
2021/04/21 03:13:13;;;;;;;51.53;30.03;;;;;;;;;;5006052;28;20542;-86
2021/04/21 03:16:19;;;;;;;49.97;28.70;;;;;;;;;;4994661;28;20620;-86
2021/04/21 03:19:34;;;;;;;48.33;28.90;;;;;;;;;;4995360;28;20546;-86
2021/04/21 03:22:40;;;;;;;44.57;25.77;;;;;;;;;;4983154;28;20593;-86
2021/04/21 03:25:48;;;;;;;51.07;27.87;;;;;;;;;;4983508;28;20625;-86
2021/04/21 03:29:00;;;;;;;49.87;28.17;;;;;;;;;;5005580;28;20593;-85
2021/04/21 03:32:10;;;;;;;49.97;28.83;;;;;;;;;;4994654;28;20542;-85
2021/04/21 03:35:16;;;;;;;55.37;30.43;;;;;;;;;;5005949;28;20969;-85
2021/04/21 03:38:21;;;;;;;50.20;29.00;;;;;;;;;;5005910;28;20933;-86
2021/04/21 03:41:26;;;;;;;47.60;28.07;;;;;;;;;;4983294;28;20546;-86
2021/04/21 03:44:30;;;;;;;45.50;26.10;;;;;;;;;;4994433;28;20605;-86
2021/04/21 03:47:35;;;;;;;50.03;28.50;;;;;;;;;;5070777;22;20695;-71
2021/04/21 03:50:39;;;;;;;47.53;28.40;;;;;;;;;;5013463;28;21243;-71
2021/04/21 03:53:43;;;;;;;48.70;27.43;;;;;;;;;;5020418;28;20602;-72
2021/04/21 03:56:47;;;;;;;43.63;25.60;;;;;;;;;;5032706;28;21076;-72
2021/04/21 03:59:53;;;;;;;43.37;26.97;;;;;;;;;;5032620;28;20536;-72
2021/04/21 04:03:02;;;;;;;43.07;25.50;;;;;;;;;;5033134;28;21094;-72
2021/04/21 04:06:21;;;;;;;44.13;26.03;;;;;;;;;;5032680;28;20714;-73
2021/04/21 04:09:27;;;;;;;42.73;26.20;;;;;;;;;;5032498;28;21133;-73
2021/04/21 04:12:36;;;;;;;42.03;25.40;;;;;;;;;;5032189;28;20623;-72
2021/04/21 04:15:42;;;;;;;42.73;24.97;;;;;;;;;;5032479;28;20880;-73
2021/04/21 04:18:47;;;;;;;40.50;24.50;;;;;;;;;;5033091;28;20551;-72
2021/04/21 04:21:55;;;;;;;43.23;25.37;;;;;;;;;;5033148;28;20623;-72
2021/04/21 04:25:02;;;;;;;40.43;25.70;;;;;;;;;;5032374;28;20919;-72
2021/04/21 04:28:09;;;;;;;40.40;24.53;;;;;;;;;;5020312;28;20668;-71
2021/04/21 04:31:19;;;;;;;50.80;25.60;;;;;;;;;;5012463;28;20973;-72
2021/04/21 04:34:26;;;;;;;45.97;26.80;;;;;;;;;;5013150;28;20560;-73
2021/04/21 04:37:31;;;;;;;47.40;27.23;;;;;;;;;;5012422;28;20561;-72
2021/04/21 04:40:35;;;;;;;45.43;27.30;;;;;;;;;;5012708;28;20545;-73
2021/04/21 04:43:41;;;;;;;47.50;28.03;;;;;;;;;;5013033;28;20936;-73
2021/04/21 04:46:49;;;;;;;46.03;26.47;;;;;;;;;;5013020;28;20607;-73
2021/04/21 04:50:17;;;;;;;43.00;25.20;;;;;;;;;;5013080;28;20588;-72
2021/04/21 04:53:21;;;;;;;42.50;25.23;;;;;;;;;;5012031;28;20557;-72
2021/04/21 04:56:25;;;;;;;42.27;25.50;;;;;;;;;;4992748;28;20546;-72
2021/04/21 04:59:33;;;;;;;44.40;26.50;;;;;;;;;;4993218;28;20601;-73
2021/04/21 05:02:41;;;;;;;47.07;25.97;;;;;;;;;;5003591;28;20969;-72
2021/04/21 05:05:46;;;;;;;39.40;24.37;;;;;;;;;;4995183;28;20545;-72
2021/04/21 05:08:53;;;;;;;39.43;24.17;;;;;;;;;;4996162;28;20933;-72
2021/04/21 05:11:58;;;;;;;45.37;26.77;;;;;;;;;;4996698;28;20616;-72
2021/04/21 05:15:03;;;;;;;49.87;28.13;;;;;;;;;;5002973;28;20583;-72
2021/04/21 05:18:26;;;;;;;42.60;25.70;;;;;;;;;;5015673;28;20557;-73
2021/04/21 05:22:00;;;;;;;38.57;23.77;;;;;;;;;;5004362;28;20620;-73
2021/04/21 05:25:04;;;;;;;43.80;25.80;;;;;;;;;;5016167;28;20537;-73
2021/04/21 05:28:45;;;;;;;40.97;25.47;;;;;;;;;;5015168;28;20553;-73
2021/04/21 05:32:18;;;;;;;39.47;25.27;;;;;;;;;;5015868;28;20620;-72
2021/04/21 05:36:13;;;;;;;42.27;24.60;;;;;;;;;;5016332;28;20540;-72
2021/04/21 05:39:52;;;;;;;44.67;25.00;;;;;;;;;;5014402;28;20619;-73
2021/04/21 05:43:18;;;;;;;42.13;26.13;;;;;;;;;;5026532;28;21086;-72
2021/04/21 05:46:47;;;;;;;43.30;27.63;;;;;;;;;;5010075;28;20991;-72
2021/04/21 05:50:09;;;;;;;38.63;25.27;;;;;;;;;;5015561;28;20608;-72
2021/04/21 05:53:38;;;;;;;37.20;23.07;;;;;;;;;;5001694;28;20585;-72
2021/04/21 05:57:05;;;;;;;44.10;26.37;;;;;;;;;;4984195;28;20182;-72
2021/04/21 06:00:31;;;;;;;43.93;26.57;;;;;;;;;;4995453;28;20610;-72
2021/04/21 06:03:38;;;;;;;43.33;27.23;;;;;;;;;;5006280;28;20186;-72
2021/04/21 06:06:42;;;;;;;41.63;26.63;;;;;;;;;;4995616;28;20178;-72
2021/04/21 06:09:46;;;;;;;35.40;24.30;;;;;;;;;;4996115;28;20217;-72
2021/04/21 06:12:53;;;;;;;33.27;23.80;;;;;;;;;;4996585;28;20202;-72
2021/04/21 06:15:59;;;;;;;38.60;25.27;;;;;;;;;;5014601;28;20201;-72
2021/04/21 06:19:12;;;;;;;39.60;25.47;;;;;;;;;;5014642;28;20174;-72
2021/04/21 06:22:30;;;;;;;38.13;25.43;;;;;;;;;;5014465;28;20213;-72
2021/04/21 06:25:36;;;;;;;37.47;25.07;;;;;;;;;;5014673;28;20656;-71
2021/04/21 06:28:40;;;;;;;36.97;24.17;;;;;;;;;;5015096;28;20198;-71
2021/04/21 06:31:51;;;;;;;35.60;24.50;;;;;;;;;;5015271;28;20221;-72
2021/04/21 06:35:09;;;;;;;32.57;22.73;;;;;;;;;;5022878;28;20537;-71
2021/04/21 06:38:13;;;;;;;36.43;24.20;;;;;;;;;;4995741;28;20209;-72
2021/04/21 06:41:23;;;;;;;35.53;23.90;;;;;;;;;;5013554;28;20220;-73
2021/04/21 06:44:47;;;;;;;36.53;24.03;;;;;;;;;;5013245;28;20652;-72
2021/04/21 06:47:53;;;;;;;34.73;23.47;;;;;;;;;;4995073;28;20214;-72
2021/04/21 06:51:17;;;;;;;38.43;23.97;;;;;;;;;;4994347;28;20578;-72
2021/04/21 06:54:21;;;;;;;32.07;23.37;;;;;;;;;;4994052;28;20190;-72
2021/04/21 06:57:30;;;;;;;37.87;23.57;;;;;;;;;;4994858;28;20202;-72
2021/04/21 07:00:35;;;;;;;39.17;26.83;;;;;;;;;;4994896;28;20194;-73
2021/04/21 07:03:42;;;;;;;43.07;31.67;;;;;;;;;;4994660;28;20198;-72
2021/04/21 07:06:47;;;;;;;41.13;25.57;;;;;;;;;;4994086;28;20205;-73
2021/04/21 07:09:52;;;;;;;36.27;26.00;;;;;;;;;;4994735;28;20237;-72
2021/04/21 07:12:57;;;;;;;39.37;26.67;;;;;;;;;;4993800;28;20190;-73
2021/04/21 07:16:04;;;;;;;39.17;24.77;;;;;;;;;;4993991;28;20187;-73
2021/04/21 07:19:13;;;;;;;42.43;26.27;;;;;;;;;;4994498;28;20187;-72
2021/04/21 07:22:17;;;;;;;39.67;25.83;;;;;;;;;;4994343;28;20226;-73
2021/04/21 07:25:22;;;;;;;39.13;25.57;;;;;;;;;;4993747;28;20190;-73
2021/04/21 07:28:27;;;;;;;44.03;25.50;;;;;;;;;;4993743;28;20185;-73
2021/04/21 07:31:39;;;;;;;35.13;24.43;;;;;;;;;;4992586;28;20233;-72
2021/04/21 07:34:43;;;;;;;39.30;25.60;;;;;;;;;;4990386;28;20189;-72
2021/04/21 07:37:50;;;;;;;31.67;22.77;;;;;;;;;;4989369;28;20189;-72
2021/04/21 07:40:54;;;;;;;32.53;22.90;;;;;;;;;;4989383;28;20217;-72
2021/04/21 07:43:58;;;;;;;35.80;23.63;;;;;;;;;;4990235;28;20645;-72
2021/04/21 07:47:05;;;;;;;32.23;21.40;;;;;;;;;;4990172;28;20641;-72
2021/04/21 07:50:10;;;;;;;27.80;19.90;;;;;;;;;;4988900;28;20221;-72
2021/04/21 07:53:14;;;;;;;30.87;19.07;;;;;;;;;;4989339;28;20193;-72
2021/04/21 07:56:20;;;;;;;24.90;18.47;;;;;;;;;;5003344;28;20209;-72
2021/04/21 07:59:26;;;;;;;20.37;14.70;;;;;;;;;;5000667;28;20568;-72
2021/04/21 08:02:33;;;;;;;24.87;17.00;;;;;;;;;;5009003;28;20220;-72
2021/04/21 08:05:50;;;;;;;26.00;17.00;;;;;;;;;;5020529;28;20257;-72
2021/04/21 08:08:55;;;;;;;28.43;19.00;;;;;;;;;;5009736;28;20196;-72
2021/04/21 08:12:12;;;;;;;27.03;18.33;;;;;;;;;;5009673;28;20224;-72
2021/04/21 08:15:17;;;;;;;25.37;18.87;;;;;;;;;;5009762;28;20257;-72
2021/04/21 08:18:21;;;;;;;24.60;18.03;;;;;;;;;;5009167;28;20204;-72
2021/04/21 08:21:46;;;;;;;30.23;18.53;;;;;;;;;;5009620;28;20971;-72
2021/04/21 08:24:50;;;;;;;32.37;20.93;;;;;;;;;;5009371;28;20192;-72
2021/04/21 08:27:56;;;;;;;33.57;23.00;;;;;;;;;;5008906;28;20208;-72
2021/04/21 08:31:01;;;;;;;36.70;24.70;;;;;;;;;;5009354;28;20240;-72
2021/04/21 08:34:05;;;;;;;30.87;22.63;;;;;;;;;;5020135;28;20196;-72
2021/04/21 08:37:10;;;;;;;33.13;19.43;;;;;;;;;;5009074;28;20184;-72
2021/04/21 08:40:18;;;;;;;25.60;19.30;;;;;;;;;;5013432;28;20188;-72
2021/04/21 08:43:23;;;;;;;31.90;20.03;;;;;;;;;;5001083;28;20217;-72
2021/04/21 08:46:27;;;;;;;26.83;18.40;;;;;;;;;;5000533;28;20228;-72
2021/04/21 08:49:32;;;;;;;21.10;17.73;;;;;;;;;;5023502;28;20224;-72
2021/04/21 08:52:45;;;;;;;22.60;18.07;;;;;;;;;;5013069;28;20224;-72
2021/04/21 08:55:49;;;;;;;22.53;17.33;;;;;;;;;;5013071;28;20205;-72
2021/04/21 08:58:53;;;;;;;29.90;16.90;;;;;;;;;;5013239;28;20208;-72
2021/04/21 09:01:58;;;;;;;23.07;17.00;;;;;;;;;;5012643;28;20842;-72
2021/04/21 09:05:03;;;;;;;17.77;15.80;;;;;;;;;;5013058;28;20197;-72
2021/04/21 09:08:09;;;;;;;20.43;15.73;;;;;;;;;;5012995;28;20193;-72
2021/04/21 09:11:14;;;;;;;20.80;16.60;;;;;;;;;;5006998;28;20236;-72
2021/04/21 09:14:18;;;;;;;22.30;16.87;;;;;;;;;;5003318;28;20688;-73
2021/04/21 09:17:23;;;;;;;20.73;16.17;;;;;;;;;;4993208;28;20193;-72
2021/04/21 09:20:27;;;;;;;23.00;17.33;;;;;;;;;;4993099;28;20199;-72
2021/04/21 09:23:42;;;;;;;30.40;16.87;;;;;;;;;;4993227;28;20185;-72
2021/04/21 09:26:46;;;;;;;20.77;16.67;;;;;;;;;;4993165;28;20197;-72
2021/04/21 09:30:19;;;;;;;20.63;16.73;;;;;;;;;;4993191;28;20960;-72
2021/04/21 09:33:27;;;;;;;22.23;17.90;;;;;;;;;;4993122;28;20193;-72
2021/04/21 09:36:37;;;;;;;22.17;17.87;;;;;;;;;;4991697;28;20198;-72
2021/04/21 09:39:41;;;;;;;20.60;17.33;;;;;;;;;;4992880;28;20194;-73
2021/04/21 09:42:53;;;;;;;20.47;17.07;;;;;;;;;;4992813;28;20196;-73
2021/04/21 09:46:19;;;;;;;30.40;20.83;;;;;;;;;;4992779;28;20648;-72
2021/04/21 09:49:34;;;;;;;25.97;19.83;;;;;;;;;;4992290;28;20243;-72
2021/04/21 09:52:38;;;;;;;25.40;18.30;;;;;;;;;;4992564;28;20230;-72
2021/04/21 09:56:00;;;;;;;21.07;17.07;;;;;;;;;;4992642;28;20188;-73
2021/04/21 09:59:05;;;;;;;23.30;17.50;;;;;;;;;;4991682;28;20190;-73
2021/04/21 10:02:29;;;;;;;21.90;17.87;;;;;;;;;;4991840;28;20221;-73
2021/04/21 10:05:35;;;;;;;26.53;18.20;;;;;;;;;;4992446;28;20274;-73
2021/04/21 10:08:39;;;;;;;24.63;18.90;;;;;;;;;;4992381;28;20549;-73
2021/04/21 10:11:43;;;;;;;27.70;22.30;;;;;;;;;;4980115;28;20245;-73
2021/04/21 10:15:02;;;;;;;25.87;17.87;;;;;;;;;;4992305;28;20189;-73
2021/04/21 10:18:08;;;;;;;19.53;16.17;;;;;;;;;;4992105;28;20572;-73
2021/04/21 10:21:15;;;;;;;25.97;15.60;;;;;;;;;;4991941;28;20221;-73
2021/04/21 10:24:19;;;;;;;17.23;13.80;;;;;;;;;;4991558;28;20208;-72
2021/04/21 10:27:24;;;;;;;18.20;14.50;;;;;;;;;;4992090;28;20185;-72
2021/04/21 10:30:29;;;;;;;16.53;14.07;;;;;;;;;;4991767;28;20213;-72
2021/04/21 10:33:34;;;;;;;19.77;14.83;;;;;;;;;;4979916;28;20201;-72
2021/04/21 10:36:41;;;;;;;19.07;12.90;;;;;;;;;;4990677;28;20557;-72
2021/04/21 10:39:46;;;;;;;16.93;13.10;;;;;;;;;;4991753;28;20241;-73
2021/04/21 10:42:59;;;;;;;21.23;12.80;;;;;;;;;;4991623;28;20212;-72
2021/04/21 10:46:03;;;;;;;15.10;11.90;;;;;;;;;;4991511;28;20217;-73
2021/04/21 10:49:34;;;;;;;16.13;13.33;;;;;;;;;;4991235;28;20194;-73
2021/04/21 10:52:41;;;;;;;16.07;12.97;;;;;;;;;;4991328;28;20221;-72
2021/04/21 10:55:45;;;;;;;17.37;13.03;;;;;;;;;;4991105;28;20181;-72
2021/04/21 10:58:54;;;;;;;16.97;12.80;;;;;;;;;;4990163;28;20193;-72
2021/04/21 11:01:59;;;;;;;31.97;13.33;;;;;;;;;;5000271;28;20225;-72
2021/04/21 11:05:05;;;;;;;16.60;12.87;;;;;;;;;;5004394;28;20216;-72
2021/04/21 11:08:12;;;;;;;15.97;13.83;;;;;;;;;;5001237;28;20189;-72
2021/04/21 11:11:16;;;;;;;19.87;13.97;;;;;;;;;;4990470;28;20240;-72
2021/04/21 11:14:48;;;;;;;21.33;14.73;;;;;;;;;;5007478;28;20227;-72
2021/04/21 11:18:11;;;;;;;19.93;14.47;;;;;;;;;;5010243;28;20192;-72
2021/04/21 11:21:20;;;;;;;16.93;13.57;;;;;;;;;;5009297;28;20217;-72
2021/04/21 11:24:25;;;;;;;16.90;12.87;;;;;;;;;;5010040;28;20189;-72
2021/04/21 11:27:44;;;;;;;21.47;14.23;;;;;;;;;;5020557;28;20659;-72
2021/04/21 11:30:48;;;;;;;18.50;14.77;;;;;;;;;;5009879;28;20232;-72
2021/04/21 11:33:53;;;;;;;20.90;14.23;;;;;;;;;;5009205;28;20552;-72
2021/04/21 11:36:58;;;;;;;17.70;14.00;;;;;;;;;;5009543;28;20189;-72
2021/04/21 11:40:07;;;;;;;19.13;13.40;;;;;;;;;;5020407;28;20200;-72
2021/04/21 11:43:15;;;;;;;19.43;15.33;;;;;;;;;;5009918;28;20552;-72
2021/04/21 11:47:01;;;;;;;21.40;16.00;;;;;;;;;;5009801;28;20220;-72
2021/04/21 11:50:16;;;;;;;21.13;16.00;;;;;;;;;;5008640;28;20197;-72
2021/04/21 11:53:24;;;;;;;17.20;13.63;;;;;;;;;;4986457;28;20189;-72
2021/04/21 11:56:37;;;;;;;11.13;8.10;;;;;;;;;;5009755;28;20235;-72
2021/04/21 11:59:41;;;;;;;10.67;7.27;;;;;;;;;;5029106;23;20221;-77
2021/04/21 12:02:45;;;;;;;9.70;7.43;;;;;;;;;;5039245;28;20193;-77
2021/04/21 12:05:53;;;;;;;8.00;7.00;;;;;;;;;;5034455;28;20508;-77
2021/04/21 12:08:57;;;;;;;11.13;6.43;;;;;;;;;;5038769;28;20200;-77
2021/04/21 12:12:01;;;;;;;8.10;5.70;;;;;;;;;;5053922;28;20603;-77
2021/04/21 12:15:08;;;;;;;7.20;5.70;;;;;;;;;;5055007;28;20184;-76
2021/04/21 12:18:28;;;;;;;11.60;9.20;;;;;;;;;;5042430;28;20184;-77
2021/04/21 12:21:39;;;;;;;13.77;7.23;;;;;;;;;;5053580;28;20212;-76
2021/04/21 12:24:43;;;;;;;10.90;7.83;;;;;;;;;;5053686;28;20192;-77
2021/04/21 12:27:55;;;;;;;8.17;6.63;;;;;;;;;;5054174;28;20630;-76
2021/04/21 12:30:59;;;;;;;9.23;6.60;;;;;;;;;;5053961;28;20212;-77
2021/04/21 12:34:12;;;;;;;10.73;7.03;;;;;;;;;;5048279;28;20667;-76
2021/04/21 12:37:21;;;;;;;74.50;9.33;;;;;;;;;;5024788;28;20181;-76
2021/04/21 12:40:31;;;;;;;15.87;9.13;;;;;;;;;;5035387;28;20185;-76
2021/04/21 12:43:35;;;;;;;10.40;8.87;;;;;;;;;;5023927;28;20177;-76
2021/04/21 12:46:40;;;;;;;12.33;8.57;;;;;;;;;;5035743;28;20181;-77
2021/04/21 12:49:49;;;;;;;9.00;7.40;;;;;;;;;;5035190;28;20177;-77
2021/04/21 12:53:13;;;;;;;9.63;6.07;;;;;;;;;;5023457;28;20169;-76
2021/04/21 12:56:17;;;;;;;8.07;6.17;;;;;;;;;;5024098;28;20541;-76
2021/04/21 12:59:21;;;;;;;8.00;6.50;;;;;;;;;;5012203;28;20517;-77
2021/04/21 13:02:46;;;;;;;10.07;7.27;;;;;;;;;;5034523;28;20580;-77
2021/04/21 13:05:51;;;;;;;12.13;7.20;;;;;;;;;;5021840;28;20181;-78
2021/04/21 13:09:03;;;;;;;14.03;6.73;;;;;;;;;;5024484;28;20181;-79
2021/04/21 13:12:11;;;;;;;8.53;5.53;;;;;;;;;;5030771;28;20229;-78
2021/04/21 13:15:18;;;;;;;7.37;5.73;;;;;;;;;;5026365;28;20181;-78
2021/04/21 13:18:37;;;;;;;5.30;4.53;;;;;;;;;;5039365;28;20666;-78
2021/04/21 13:21:42;;;;;;;8.17;5.73;;;;;;;;;;5042831;28;20682;-78
2021/04/21 13:24:48;;;;;;;10.17;7.00;;;;;;;;;;5041638;28;20192;-77
2021/04/21 13:27:52;;;;;;;11.07;6.10;;;;;;;;;;5056360;28;20555;-77
2021/04/21 13:31:18;;;;;;;13.23;6.33;;;;;;;;;;5055457;28;20215;-77
2021/04/21 13:34:23;;;;;;;9.17;7.60;;;;;;;;;;5043925;28;20192;-77
2021/04/21 13:37:27;;;;;;;11.33;8.03;;;;;;;;;;5057176;28;20180;-78
2021/04/21 13:40:31;;;;;;;12.47;7.37;;;;;;;;;;5056257;28;20196;-77
2021/04/21 13:43:36;;;;;;;7.60;6.83;;;;;;;;;;5045027;28;20172;-77
2021/04/21 13:46:40;;;;;;;10.03;7.57;;;;;;;;;;5056082;28;20206;-77
2021/04/21 13:49:44;;;;;;;10.83;7.90;;;;;;;;;;5044907;28;20184;-77
2021/04/21 13:52:50;;;;;;;10.37;7.03;;;;;;;;;;5057317;28;20657;-77
2021/04/21 13:55:57;;;;;;;9.30;7.07;;;;;;;;;;5057076;28;20180;-77
2021/04/21 13:59:01;;;;;;;16.33;7.83;;;;;;;;;;5056810;28;20507;-77
2021/04/21 14:02:07;;;;;;;11.77;8.53;;;;;;;;;;5055309;28;20216;-77
2021/04/21 14:05:11;;;;;;;10.90;8.13;;;;;;;;;;5054950;28;20184;-78
2021/04/21 14:08:15;;;;;;;8.07;7.10;;;;;;;;;;5044095;28;20200;-77
2021/04/21 14:11:19;;;;;;;155.93;14.13;;;;;;;;;;5056443;28;20227;-77
2021/04/21 14:14:24;;;;;;;10.83;8.33;;;;;;;;;;5055486;28;20570;-77
2021/04/21 14:17:28;;;;;;;15.13;7.70;;;;;;;;;;5056027;28;20182;-78
2021/04/21 14:20:32;;;;;;;10.33;7.97;;;;;;;;;;5055531;28;20177;-77
2021/04/21 14:23:36;;;;;;;11.73;8.53;;;;;;;;;;5055644;28;20189;-77
2021/04/21 14:26:42;;;;;;;13.23;8.17;;;;;;;;;;5043524;28;20188;-77
2021/04/21 14:29:47;;;;;;;8.27;6.67;;;;;;;;;;5055644;28;20180;-77
2021/04/21 14:32:52;;;;;;;8.90;5.30;;;;;;;;;;5056273;28;20204;-77
2021/04/21 14:35:56;;;;;;;6.07;4.80;;;;;;;;;;5035268;28;20205;-77
2021/04/21 14:39:03;;;;;;;16.00;5.30;;;;;;;;;;5047294;28;20192;-77
2021/04/21 14:42:09;;;;;;;8.47;4.97;;;;;;;;;;5054465;28;20559;-77
2021/04/21 14:45:13;;;;;;;11.80;5.63;;;;;;;;;;5054477;28;20192;-77
2021/04/21 14:48:18;;;;;;;17.63;5.63;;;;;;;;;;5054506;28;20539;-77
2021/04/21 14:51:22;;;;;;;8.70;5.83;;;;;;;;;;5053724;28;20215;-77
2021/04/21 14:54:26;;;;;;;12.50;8.30;;;;;;;;;;5043078;28;20196;-77
2021/04/21 14:57:31;;;;;;;14.43;10.47;;;;;;;;;;5054303;28;20200;-77
2021/04/21 15:00:35;;;;;;;18.30;13.77;;;;;;;;;;5031053;28;20215;-76
2021/04/21 15:03:42;;;;;;;8.60;6.40;;;;;;;;;;5034729;28;20176;-77
2021/04/21 15:06:48;;;;;;;12.63;8.73;;;;;;;;;;5034930;28;20181;-77
2021/04/21 15:09:52;;;;;;;9.33;7.47;;;;;;;;;;5033490;28;20193;-77
2021/04/21 15:12:56;;;;;;;13.20;10.30;;;;;;;;;;5034063;28;20205;-77
2021/04/21 15:16:05;;;;;;;11.03;7.63;;;;;;;;;;5034273;28;20207;-77
2021/04/21 15:19:10;;;;;;;9.60;7.23;;;;;;;;;;5010738;28;20177;-77
2021/04/21 15:22:15;;;;;;;9.17;6.50;;;;;;;;;;5022102;28;20220;-77
2021/04/21 15:25:22;;;;;;;8.10;5.37;;;;;;;;;;5034291;28;20177;-77
2021/04/21 15:28:26;;;;;;;10.43;4.83;;;;;;;;;;5022043;28;20177;-77
2021/04/21 15:31:36;;;;;;;20.97;4.10;;;;;;;;;;5034415;28;20208;-77
2021/04/21 15:34:41;;;;;;;4.00;3.57;;;;;;;;;;5047305;28;20204;-77
2021/04/21 15:37:46;;;;;;;12.57;3.70;;;;;;;;;;5052484;28;20187;-77
2021/04/21 15:40:52;;;;;;;5.17;2.97;;;;;;;;;;5050721;28;20219;-76
2021/04/21 15:43:57;;;;;;;4.27;2.50;;;;;;;;;;5049803;28;20853;-77
2021/04/21 15:47:01;;;;;;;12.27;3.10;;;;;;;;;;5049132;28;20187;-77
2021/04/21 15:50:06;;;;;;;4.30;2.57;;;;;;;;;;5049687;28;20188;-77
2021/04/21 15:53:10;;;;;;;5.57;3.90;;;;;;;;;;5048405;28;20212;-77
2021/04/21 15:56:15;;;;;;;3.27;2.83;;;;;;;;;;5049065;28;20666;-76
2021/04/21 15:59:21;;;;;;;4.10;2.43;;;;;;;;;;5030739;28;20177;-77
2021/04/21 16:02:26;;;;;;;3.70;2.90;;;;;;;;;;5037375;28;20571;-77
2021/04/21 16:05:31;;;;;;;3.70;3.10;;;;;;;;;;5049447;28;20200;-76
2021/04/21 16:08:37;;;;;;;3.27;2.90;;;;;;;;;;5049488;28;20191;-76
2021/04/21 16:11:42;;;;;;;5.07;2.93;;;;;;;;;;5049907;28;20690;-76
2021/04/21 16:14:46;;;;;;;6.27;2.93;;;;;;;;;;5037435;28;20184;-76
2021/04/21 16:17:51;;;;;;;4.07;3.30;;;;;;;;;;5042949;28;20188;-76
2021/04/21 16:20:55;;;;;;;7.50;5.23;;;;;;;;;;5036834;28;20634;-76
2021/04/21 16:23:59;;;;;;;3.93;2.80;;;;;;;;;;5026023;28;20183;-77
2021/04/21 16:27:04;;;;;;;4.47;3.40;;;;;;;;;;5035343;28;20196;-77
2021/04/21 16:30:10;;;;;;;4.60;2.73;;;;;;;;;;5048052;28;20605;-77
2021/04/21 16:33:15;;;;;;;4.80;3.30;;;;;;;;;;5048014;28;20216;-77
2021/04/21 16:36:19;;;;;;;5.80;3.17;;;;;;;;;;5052232;28;20662;-78
2021/04/21 16:39:25;;;;;;;4.63;3.23;;;;;;;;;;5057780;28;20207;-78
2021/04/21 16:42:30;;;;;;;5.97;3.40;;;;;;;;;;5051211;28;20220;-77
2021/04/21 16:45:35;;;;;;;12.37;6.67;;;;;;;;;;5041780;28;20188;-78
2021/04/21 16:48:41;;;;;;;13.03;4.47;;;;;;;;;;5034905;28;20189;-78
2021/04/21 16:51:46;;;;;;;15.93;3.73;;;;;;;;;;5037415;28;20220;-77
2021/04/21 16:54:50;;;;;;;18.37;5.70;;;;;;;;;;5041272;28;20252;-77
2021/04/21 16:57:54;;;;;;;15.57;5.63;;;;;;;;;;5049026;28;20195;-77
2021/04/21 17:01:02;;;;;;;11.30;5.80;;;;;;;;;;5038679;28;20219;-77
2021/04/21 17:04:07;;;;;;;18.83;6.00;;;;;;;;;;5056151;28;20184;-76
2021/04/21 17:07:12;;;;;;;17.87;6.20;;;;;;;;;;5036290;28;20176;-78
2021/04/21 17:10:16;;;;;;;18.77;6.63;;;;;;;;;;5022990;28;20579;-77
2021/04/21 17:13:21;;;;;;;15.63;6.50;;;;;;;;;;5042867;28;20208;-77
2021/04/21 17:16:25;;;;;;;10.07;5.03;;;;;;;;;;5034152;28;20631;-76
2021/04/21 17:19:31;;;;;;;9.93;6.00;;;;;;;;;;5033029;28;20644;-73
2021/04/21 17:22:36;;;;;;;17.67;6.37;;;;;;;;;;5045841;28;20702;-71
2021/04/21 17:25:40;;;;;;;15.87;7.23;;;;;;;;;;5052074;28;20192;-72
2021/04/21 17:28:45;;;;;;;8.43;6.37;;;;;;;;;;5052090;28;20173;-73
2021/04/21 17:31:49;;;;;;;8.57;6.43;;;;;;;;;;5052080;28;20215;-72
2021/04/21 17:34:54;;;;;;;8.07;6.10;;;;;;;;;;5052139;28;20184;-72
2021/04/21 17:37:59;;;;;;;9.80;6.80;;;;;;;;;;5051517;28;20200;-72
2021/04/21 17:41:03;;;;;;;9.40;6.50;;;;;;;;;;5051505;28;20211;-72
2021/04/21 17:44:07;;;;;;;9.87;6.90;;;;;;;;;;5039688;28;20180;-72
2021/04/21 17:47:19;;;;;;;11.67;6.60;;;;;;;;;;5050993;28;20196;-72
2021/04/21 17:50:34;;;;;;;8.90;6.20;;;;;;;;;;5051505;28;20667;-71
2021/04/21 17:53:41;;;;;;;10.70;7.03;;;;;;;;;;5031399;28;20239;-71
2021/04/21 17:56:45;;;;;;;8.57;6.50;;;;;;;;;;5042076;28;20204;-72
2021/04/21 17:59:50;;;;;;;21.83;15.40;;;;;;;;;;5039106;28;20215;-72
2021/04/21 18:02:57;;;;;;;5.80;4.47;;;;;;;;;;5046696;28;20182;-72
2021/04/21 18:06:02;;;;;;;5.77;4.60;;;;;;;;;;5050797;28;20184;-71
2021/04/21 18:09:06;;;;;;;7.90;5.10;;;;;;;;;;5050896;28;20500;-72
2021/04/21 18:12:10;;;;;;;5.97;5.13;;;;;;;;;;5039917;28;20219;-72
2021/04/21 18:15:15;;;;;;;6.20;4.63;;;;;;;;;;5045841;28;20200;-73
2021/04/21 18:18:20;;;;;;;11.80;5.00;;;;;;;;;;5050911;28;20918;-73
2021/04/21 18:21:24;;;;;;;6.63;4.63;;;;;;;;;;5050076;28;20578;-72
2021/04/21 18:24:29;;;;;;;7.07;4.50;;;;;;;;;;5030564;28;20180;-72
2021/04/21 18:27:33;;;;;;;7.47;5.30;;;;;;;;;;5033867;28;20192;-73